VVPQ

Phu Quoc Airport

Duong Dong, Vietnam
TAF VVPQ 231100Z 2312/2412 24010KT 9999 SCT015
Issued Valid From Valid To
Jul-23 @ 11:00 UTC
(3 hours ago)
Jul-23 @ 12:00 UTC
(2 hours ago)
Jul-24 @ 12:00 UTC
(in 22 hours)
Jul-23 @ 12:00 to Jul-24 @ 12:00
TAF VVPQ 231100Z 2312/2412 24010KT 9999 SCT015
Wind Visibility Clouds
240° at 10 knots 10,000+ meters
  • Scattered at 1,500' AGL
TAF VVPQ 231100Z 2312/2412 24010KT 9999 SCT015
Issued Jul-23 @ 11:00 UTC
(3 hours ago)
Valid From Jul-23 @ 12:00 UTC
(2 hours ago)
Valid To Jul-24 @ 12:00 UTC
(in 22 hours)
Jul-23 @ 12:00 - Jul-24 @ 12:00
Wind Visibility
240° at 10 knots 10,000+ meters
Clouds
  • Scattered at 1,500' AGL